Time;durP1;ratioP1;P1;durP2;ratioP2;P2;SDS_P1;SDS_P2;PMS_P1;PMS_P2;Temp;Humidity;BMP_temperature;BMP_pressure;BME280_temperature;BME280_humidity;BME280_pressure;Samples;Min_cycle;Max_cycle;Signal;HPM_P1;HPM_P2
2022/12/06 00:02:07;;;;;;;80.77;42.27;;;;;;;2.00;82.03;101477.50;1760887;80;22109;-84
2022/12/06 00:04:34;;;;;;;82.62;42.45;;;;;;;2.02;82.06;101474.20;1763269;80;21059;-80
2022/12/06 00:07:01;;;;;;;72.50;40.65;;;;;;;2.01;81.97;101478.91;1737095;81;21041;-84
2022/12/06 00:09:29;;;;;;;80.25;41.73;;;;;;;2.00;81.99;101469.30;1746318;81;21623;-80
2022/12/06 00:11:57;;;;;;;85.25;43.85;;;;;;;2.00;82.05;101463.22;1746273;81;22693;-81
2022/12/06 00:14:24;;;;;;;89.30;44.15;;;;;;;2.00;82.03;101459.32;1711684;82;21051;-81
2022/12/06 00:16:52;;;;;;;82.10;41.92;;;;;;;2.01;82.05;101465.00;1762528;80;21079;-82
2022/12/06 00:19:21;;;;;;;84.72;42.98;;;;;;;1.99;82.08;101462.33;1713534;82;21085;-85
2022/12/06 00:21:49;;;;;;;80.17;41.48;;;;;;;1.98;82.04;101461.80;1707566;83;21071;-85
2022/12/06 00:24:18;;;;;;;79.95;43.38;;;;;;;2.00;82.18;101454.13;1758106;80;22528;-85
2022/12/06 00:26:45;;;;;;;86.85;43.98;;;;;;;2.06;82.18;101454.14;1737832;81;21076;-85
2022/12/06 00:29:16;;;;;;;88.10;44.60;;;;;;;2.10;82.33;101445.80;1723827;82;21690;-86
2022/12/06 00:31:42;;;;;;;83.95;44.98;;;;;;;2.13;82.23;101443.80;1756497;81;21048;-85
2022/12/06 00:34:09;;;;;;;86.92;43.15;;;;;;;2.14;82.19;101449.52;1741534;81;22336;-84
2022/12/06 00:36:37;;;;;;;82.92;43.35;;;;;;;2.14;82.14;101447.81;1729615;82;21744;-85
2022/12/06 00:39:11;;;;;;;85.85;44.25;;;;;;;2.16;82.15;101445.33;1746048;81;21041;-85
2022/12/06 00:44:06;;;;;;;90.30;45.00;;;;;;;2.23;82.25;101437.14;1750725;81;22485;-85
2022/12/06 00:46:33;;;;;;;96.42;44.25;;;;;;;2.21;82.26;101445.23;1722476;82;21445;-86
2022/12/06 00:49:00;;;;;;;92.75;43.92;;;;;;;2.20;82.15;101442.14;1723299;82;21754;-81
2022/12/06 00:51:28;;;;;;;84.80;42.75;;;;;;;2.20;82.19;101439.55;1722767;82;21111;-81
2022/12/06 00:53:55;;;;;;;92.62;44.40;;;;;;;2.20;82.13;101443.85;1725707;81;21042;-85
2022/12/06 00:56:22;;;;;;;93.58;44.15;;;;;;;2.18;82.17;101448.93;1723030;82;21152;-84
2022/12/06 00:58:49;;;;;;;86.22;45.10;;;;;;;2.16;82.09;101458.69;1731875;81;21079;-81
2022/12/06 01:01:21;;;;;;;90.25;44.88;;;;;;;2.13;82.12;101462.88;1725653;81;22625;-85
2022/12/06 01:03:53;;;;;;;87.12;45.00;;;;;;;2.17;82.32;101459.20;1722773;82;21039;-81
2022/12/06 01:06:24;;;;;;;87.55;45.15;;;;;;;2.19;82.28;101457.21;1722964;82;21050;-80
2022/12/06 01:08:53;;;;;;;91.97;46.35;;;;;;;2.20;82.33;101452.53;1727351;81;21105;-85
2022/12/06 01:11:21;;;;;;;96.85;45.67;;;;;;;2.21;82.30;101452.12;1723505;82;21058;-80
2022/12/06 01:13:47;;;;;;;94.72;46.05;;;;;;;2.21;82.20;101444.34;1694440;82;21734;-85
2022/12/06 01:16:18;;;;;;;93.10;45.70;;;;;;;2.20;82.25;101436.06;1718943;82;21533;-84
2022/12/06 01:18:45;;;;;;;86.72;45.12;;;;;;;2.23;82.32;101432.35;1723727;81;21067;-84
2022/12/06 01:21:15;;;;;;;94.85;43.85;;;;;;;2.22;82.25;101430.16;1720773;82;21066;-84
2022/12/06 01:23:44;;;;;;;98.05;45.45;;;;;;;2.20;82.19;101424.38;1722596;81;21114;-84
2022/12/06 01:26:29;;;;;;;89.85;45.35;;;;;;;2.20;82.25;101429.16;1662528;84;23283;-85
2022/12/06 01:28:57;;;;;;;92.20;46.50;;;;;;;2.23;82.33;101424.16;1680830;84;21138;-86
2022/12/06 01:31:24;;;;;;;91.12;47.17;;;;;;;2.23;82.33;101417.66;1685697;84;21083;-82
2022/12/06 01:33:50;;;;;;;95.38;45.60;;;;;;;2.19;82.22;101408.27;1685189;84;21692;-81
2022/12/06 01:36:21;;;;;;;86.53;44.53;;;;;;;2.21;82.35;101411.88;1677653;84;21647;-82
2022/12/06 01:38:53;;;;;;;102.90;48.10;;;;;;;2.23;82.35;101407.27;1676788;84;21843;-81
2022/12/06 01:41:20;;;;;;;88.67;45.67;;;;;;;2.26;82.45;101403.59;1674360;84;21204;-80
2022/12/06 01:43:47;;;;;;;90.42;44.40;;;;;;;2.29;82.42;101405.49;1673849;84;21075;-80
2022/12/06 01:46:30;;;;;;;95.07;47.73;;;;;;;2.31;82.43;101400.93;1695276;83;21043;-80
2022/12/06 01:49:09;;;;;;;100.87;49.10;;;;;;;2.34;82.39;101398.52;1669581;84;21098;-80
2022/12/06 01:51:35;;;;;;;101.38;47.45;;;;;;;2.34;82.29;101387.23;1667552;84;23033;-80
2022/12/06 01:54:03;;;;;;;106.00;47.83;;;;;;;2.33;82.33;101385.05;1690797;83;21612;-82
2022/12/06 01:56:31;;;;;;;100.60;45.83;;;;;;;2.34;82.35;101380.73;1703506;83;21078;-86
2022/12/06 01:58:57;;;;;;;95.30;45.28;;;;;;;2.37;82.32;101381.37;1688900;84;21059;-88
2022/12/06 02:01:25;;;;;;;95.95;47.15;;;;;;;2.36;82.39;101373.95;1688819;84;21154;-87
2022/12/06 02:03:54;;;;;;;96.95;46.65;;;;;;;2.37;82.31;101371.86;1690247;83;21203;-86
2022/12/06 02:06:20;;;;;;;100.18;46.33;;;;;;;2.38;82.36;101369.75;1692257;83;21176;-81
2022/12/06 02:08:47;;;;;;;92.90;44.23;;;;;;;2.36;82.36;101363.55;1690644;83;21076;-80
2022/12/06 02:11:14;;;;;;;87.95;43.87;;;;;;;2.35;82.30;101361.77;1690783;83;21087;-79
2022/12/06 02:13:40;;;;;;;88.35;45.30;;;;;;;2.36;82.44;101355.76;1692508;83;21162;-80
2022/12/06 02:16:46;;;;;;;92.57;45.10;;;;;;;2.39;82.48;101354.69;1687585;83;22954;-84
2022/12/06 02:19:26;;;;;;;83.65;41.70;;;;;;;2.41;82.43;101347.89;1688159;83;21075;-80
2022/12/06 02:22:07;;;;;;;86.53;41.30;;;;;;;2.45;82.49;101347.70;1691138;83;21576;-84
2022/12/06 02:24:51;;;;;;;85.20;42.45;;;;;;;2.45;82.45;101338.60;1671689;83;22015;-85
2022/12/06 02:27:24;;;;;;;;;;;;;;;2.46;82.44;101337.41;1700473;82;21078;-85
2022/12/06 02:30:19;;;;;;;78.75;40.78;;;;;;;2.47;82.44;101333.11;1695658;83;21791;-81
2022/12/06 02:32:53;;;;;;;80.22;40.08;;;;;;;2.46;82.32;101332.59;1669397;84;21160;-80
2022/12/06 02:35:33;;;;;;;77.60;39.58;;;;;;;2.40;82.37;101329.59;1675481;84;21090;-80
2022/12/06 02:38:29;;;;;;;77.80;40.28;;;;;;;2.44;82.51;101330.30;1690974;83;21059;-80
2022/12/06 02:40:58;;;;;;;79.67;40.80;;;;;;;2.46;82.42;101329.99;1608039;84;21141;-81
2022/12/06 02:43:29;;;;;;;77.97;38.10;;;;;;;2.48;82.51;101314.13;1679342;83;21739;-81
2022/12/06 02:45:56;;;;;;;84.90;42.53;;;;;;;2.50;82.51;101312.13;1719337;82;21644;-81
2022/12/06 02:48:23;;;;;;;79.47;39.03;;;;;;;2.53;82.53;101311.42;1719526;82;21791;-81
2022/12/06 02:51:02;;;;;;;80.70;39.23;;;;;;;2.55;82.46;101301.13;1688456;82;21023;-81
2022/12/06 02:53:28;;;;;;;87.25;41.05;;;;;;;2.55;82.41;101302.43;1718694;82;20991;-81
2022/12/06 02:55:55;;;;;;;79.82;39.83;;;;;;;2.51;82.29;101297.02;1721790;82;21781;-81
2022/12/06 02:58:21;;;;;;;88.85;41.23;;;;;;;2.52;82.36;101292.75;1689799;83;21938;-86
2022/12/06 03:00:57;;;;;;;86.65;41.58;;;;;;;2.53;82.37;101294.52;1720493;82;21909;-85
2022/12/06 03:03:55;;;;;;;81.92;41.92;;;;;;;2.51;82.43;101298.31;1716460;83;21064;-86
2022/12/06 03:07:17;;;;;;;80.62;41.50;;;;;;;2.52;82.42;101288.84;1720246;82;20996;-86
2022/12/06 03:10:18;;;;;;;83.80;42.70;;;;;;;2.49;82.30;101287.33;1717616;82;21737;-86
2022/12/06 03:13:14;;;;;;;84.50;40.73;;;;;;;2.49;82.37;101297.73;1712634;82;21730;-81
2022/12/06 03:16:03;;;;;;;89.40;41.68;;;;;;;2.50;82.49;101305.63;1720782;81;21076;-86
2022/12/06 03:18:59;;;;;;;87.40;42.67;;;;;;;2.52;82.50;101303.14;1690418;82;21012;-86
2022/12/06 03:21:34;;;;;;;84.75;43.20;;;;;;;2.53;82.49;101311.05;1709868;83;21547;-86
2022/12/06 03:24:01;;;;;;;80.25;42.43;;;;;;;2.57;82.55;101304.31;1714526;83;22641;-86
2022/12/06 03:26:29;;;;;;;82.30;42.73;;;;;;;2.60;82.46;101299.74;1715213;83;22239;-87
2022/12/06 03:28:57;;;;;;;80.90;42.17;;;;;;;2.61;82.48;101297.25;1716319;83;21988;-87
2022/12/06 03:31:25;;;;;;;84.55;42.50;;;;;;;2.65;82.43;101297.05;1714212;82;21712;-83
2022/12/06 03:33:59;;;;;;;84.83;43.28;;;;;;;2.67;82.40;101302.84;1714224;83;21579;-82
2022/12/06 03:36:26;;;;;;;85.50;41.30;;;;;;;2.64;82.29;101292.23;1686764;82;21787;-82
2022/12/06 03:38:55;;;;;;;86.47;40.90;;;;;;;2.68;82.29;101290.73;1714031;83;21617;-86
2022/12/06 03:41:24;;;;;;;82.67;39.98;;;;;;;2.68;82.25;101284.23;1725383;82;21034;-87
2022/12/06 03:43:51;;;;;;;88.62;43.63;;;;;;;2.70;82.24;101284.86;1725136;82;21275;-86
2022/12/06 03:46:22;;;;;;;86.45;42.65;;;;;;;2.70;82.23;101283.56;1719987;82;21043;-86
2022/12/06 03:48:56;;;;;;;88.67;43.25;;;;;;;2.72;82.18;101279.73;1722404;82;21769;-81
2022/12/06 03:51:28;;;;;;;82.20;42.48;;;;;;;2.71;82.11;101277.55;1693376;83;21030;-81
2022/12/06 03:53:58;;;;;;;87.37;43.40;;;;;;;2.69;82.12;101269.16;1714282;83;21115;-86
2022/12/06 03:56:25;;;;;;;76.02;40.95;;;;;;;2.70;82.16;101268.34;1705288;82;21073;-86
2022/12/06 03:58:52;;;;;;;78.35;40.38;;;;;;;2.68;82.11;101261.77;1716271;83;21385;-86
2022/12/06 04:01:19;;;;;;;78.67;40.95;;;;;;;2.70;82.18;101269.27;1718796;82;21841;-80
2022/12/06 04:03:45;;;;;;;72.75;40.25;;;;;;;2.72;82.19;101268.03;1718313;82;21580;-86
2022/12/06 04:06:12;;;;;;;74.20;39.15;;;;;;;2.75;82.24;101266.05;1720230;82;21082;-80
2022/12/06 04:08:39;;;;;;;79.72;40.67;;;;;;;2.76;82.10;101270.44;1717233;82;21111;-86
2022/12/06 04:11:06;;;;;;;77.78;41.20;;;;;;;2.74;82.06;101266.47;1714208;83;22015;-81
2022/12/06 04:13:35;;;;;;;77.40;40.28;;;;;;;2.76;82.05;101265.23;1716506;83;23038;-87
2022/12/06 04:16:03;;;;;;;71.55;39.67;;;;;;;2.77;82.06;101257.95;1714834;83;22013;-87
2022/12/06 04:18:29;;;;;;;77.03;40.20;;;;;;;2.78;82.04;101267.16;1716246;82;21025;-88
2022/12/06 04:23:49;;;;;;;84.25;43.80;;;;;;;2.83;82.09;101264.42;1717053;82;21934;-81
2022/12/06 04:26:19;;;;;;;78.83;41.02;;;;;;;2.84;81.99;101272.74;1715084;82;21745;-81
2022/12/06 04:39:45;;;;;;;76.30;39.73;;;;;;;2.78;81.81;101255.83;1715730;83;21840;-87
2022/12/06 04:44:57;;;;;;;75.37;40.78;;;;;;;2.69;81.87;101247.06;1715943;82;21139;-82
2022/12/06 04:47:24;;;;;;;74.05;40.43;;;;;;;2.68;81.91;101246.17;1714724;82;21330;-82
2022/12/06 04:49:51;;;;;;;68.05;38.60;;;;;;;2.71;81.99;101253.26;1712018;83;21048;-86
2022/12/06 04:52:18;;;;;;;69.00;38.13;;;;;;;2.68;81.89;101251.75;1715018;83;22589;-81
2022/12/06 04:54:46;;;;;;;72.90;38.38;;;;;;;2.68;81.99;101247.84;1710673;82;21578;-79
2022/12/06 04:57:13;;;;;;;71.42;40.20;;;;;;;2.72;82.15;101245.94;1716334;82;21087;-83
2022/12/06 04:59:41;;;;;;;75.03;38.55;;;;;;;2.77;82.16;101241.95;1715426;83;21111;-80
2022/12/06 05:02:10;;;;;;;82.67;40.12;;;;;;;2.81;82.09;101238.73;1720870;82;21054;-86
2022/12/06 05:04:37;;;;;;;72.92;40.35;;;;;;;2.81;81.94;101234.83;1688773;83;21830;-85
2022/12/06 05:07:05;;;;;;;75.08;38.95;;;;;;;2.75;81.76;101229.25;1725839;82;21046;-85
2022/12/06 05:09:31;;;;;;;68.42;38.38;;;;;;;2.73;81.82;101233.45;1724409;82;21051;-85
2022/12/06 05:11:58;;;;;;;72.27;39.80;;;;;;;2.74;81.85;101232.67;1719397;83;21058;-81
2022/12/06 05:14:25;;;;;;;70.05;37.50;;;;;;;2.76;81.89;101234.97;1716818;82;21050;-81
2022/12/06 05:16:51;;;;;;;73.62;39.03;;;;;;;2.80;81.97;101227.86;1718980;82;21752;-86
2022/12/06 05:19:20;;;;;;;62.53;38.13;;;;;;;2.82;81.96;101221.05;1717608;82;21047;-86
2022/12/06 05:21:47;;;;;;;65.22;37.60;;;;;;;2.85;81.88;101220.33;1715309;82;22354;-84
2022/12/06 05:24:13;;;;;;;69.22;38.73;;;;;;;2.85;81.83;101221.62;1720078;82;21037;-82
2022/12/06 05:26:40;;;;;;;69.30;38.50;;;;;;;2.85;81.86;101219.95;1711394;82;21118;-80
2022/12/06 05:29:08;;;;;;;66.55;38.85;;;;;;;2.88;81.91;101214.04;1682610;82;21748;-85
2022/12/06 05:31:35;;;;;;;69.62;38.90;;;;;;;2.88;81.81;101209.73;1712106;82;21061;-84
2022/12/06 05:34:02;;;;;;;64.87;37.03;;;;;;;2.81;81.53;101205.34;1723184;83;21134;-77
2022/12/06 05:36:29;;;;;;;63.92;38.60;;;;;;;2.78;81.70;101203.47;1714733;82;21250;-84
2022/12/06 05:38:55;;;;;;;66.45;36.73;;;;;;;2.80;81.79;101204.87;1715183;83;21044;-83
2022/12/06 05:41:22;;;;;;;67.50;38.25;;;;;;;2.80;81.82;101201.86;1706693;83;21750;-86
2022/12/06 05:43:49;;;;;;;62.85;36.75;;;;;;;2.81;81.77;101197.14;1720709;83;21102;-85
2022/12/06 05:46:16;;;;;;;63.70;37.17;;;;;;;2.81;81.77;101194.95;1719174;82;21003;-80
2022/12/06 05:48:44;;;;;;;62.93;37.20;;;;;;;2.82;81.74;101196.34;1714136;82;21000;-80
2022/12/06 05:51:11;;;;;;;69.58;38.55;;;;;;;2.84;81.79;101196.45;1717006;82;21022;-86
2022/12/06 05:53:39;;;;;;;76.85;40.55;;;;;;;2.84;81.75;101193.85;1715671;82;22370;-81
2022/12/06 05:56:08;;;;;;;66.40;39.75;;;;;;;2.88;81.84;101192.83;1714534;83;21354;-84
2022/12/06 05:58:35;;;;;;;71.20;40.38;;;;;;;2.89;81.81;101192.04;1713941;83;20988;-81
2022/12/06 06:01:01;;;;;;;75.05;41.05;;;;;;;2.93;81.85;101189.23;1719634;82;20974;-85
2022/12/06 06:03:28;;;;;;;70.25;39.58;;;;;;;2.94;81.72;101188.82;1717192;83;21099;-82
2022/12/06 06:05:58;;;;;;;65.90;38.83;;;;;;;2.94;81.71;101187.11;1719161;82;22592;-83
2022/12/06 06:08:25;;;;;;;65.45;38.02;;;;;;;2.95;81.74;101186.70;1718778;82;21131;-83
2022/12/06 06:10:54;;;;;;;68.42;38.08;;;;;;;2.97;81.78;101185.13;1718043;82;21118;-85
2022/12/06 06:13:20;;;;;;;63.95;37.95;;;;;;;2.98;81.74;101185.20;1718054;82;21084;-84
2022/12/06 06:15:48;;;;;;;61.85;36.23;;;;;;;2.99;81.69;101188.72;1724571;82;21031;-84
2022/12/06 06:18:16;;;;;;;64.85;37.78;;;;;;;2.99;81.65;101187.42;1715564;82;21712;-85
2022/12/06 06:20:51;;;;;;;68.65;39.25;;;;;;;2.94;81.57;101189.71;1717170;82;21000;-85
2022/12/06 06:23:18;;;;;;;72.82;40.35;;;;;;;2.90;81.55;101189.92;1716607;83;21564;-85
2022/12/06 06:25:45;;;;;;;86.55;49.93;;;;;;;2.87;81.54;101189.75;1714406;82;21062;-85
2022/12/06 06:28:12;;;;;;;78.62;46.92;;;;;;;2.85;81.56;101196.55;1716429;82;21070;-86
2022/12/06 06:30:38;;;;;;;69.30;42.00;;;;;;;2.83;81.58;101192.93;1717848;81;21755;-86
2022/12/06 06:33:08;;;;;;;77.50;47.20;;;;;;;2.78;81.53;101192.14;1718013;82;21078;-82
2022/12/06 06:35:35;;;;;;;71.37;43.13;;;;;;;2.77;81.53;101194.27;1713963;83;21090;-82
2022/12/06 06:38:02;;;;;;;67.25;40.85;;;;;;;2.73;81.54;101194.05;1717688;82;21315;-81
2022/12/06 06:40:29;;;;;;;68.37;43.02;;;;;;;2.71;81.45;101196.96;1715227;83;21105;-82
2022/12/06 06:42:56;;;;;;;70.45;44.95;;;;;;;2.68;81.52;101200.69;1718465;82;21753;-85
2022/12/06 06:45:23;;;;;;;69.55;41.83;;;;;;;2.64;81.53;101192.17;1719936;83;21556;-85
2022/12/06 06:47:50;;;;;;;70.50;41.48;;;;;;;2.65;81.59;101191.38;1712673;82;22324;-85
2022/12/06 06:50:17;;;;;;;67.40;40.73;;;;;;;2.66;81.72;101194.45;1724038;82;21070;-82
2022/12/06 06:52:44;;;;;;;68.17;40.05;;;;;;;2.69;81.76;101187.28;1720206;82;21650;-85
2022/12/06 06:55:10;;;;;;;61.77;37.48;;;;;;;2.73;81.87;101187.97;1719770;83;21741;-85
2022/12/06 06:57:39;;;;;;;62.33;37.35;;;;;;;2.79;81.88;101175.75;1715492;82;21132;-85
2022/12/06 07:00:07;;;;;;;63.28;36.85;;;;;;;2.80;81.89;101169.77;1715123;83;21072;-85
2022/12/06 07:02:34;;;;;;;62.43;35.73;;;;;;;2.88;81.92;101182.84;1717227;82;21084;-85
2022/12/06 07:05:01;;;;;;;63.78;37.93;;;;;;;2.90;81.75;101182.12;1724080;82;21604;-82
2022/12/06 07:07:27;;;;;;;64.97;38.38;;;;;;;2.91;81.81;101178.73;1712103;82;21742;-84
2022/12/06 07:09:54;;;;;;;62.00;37.63;;;;;;;2.89;81.70;101177.73;1717049;82;21306;-85
2022/12/06 07:12:21;;;;;;;59.18;36.35;;;;;;;2.88;81.70;101180.23;1715769;82;21598;-85
2022/12/06 07:14:47;;;;;;;63.73;38.35;;;;;;;2.91;81.80;101177.84;1720101;82;21327;-81
2022/12/06 07:17:14;;;;;;;60.43;35.65;;;;;;;2.92;81.68;101180.92;1718665;82;21063;-82
2022/12/06 07:19:41;;;;;;;67.78;38.02;;;;;;;2.89;81.61;101173.84;1721958;82;21790;-82
2022/12/06 07:22:09;;;;;;;64.25;38.67;;;;;;;2.91;81.67;101183.94;1715485;82;21010;-82
2022/12/06 07:24:36;;;;;;;62.43;39.83;;;;;;;2.92;81.58;101178.32;1718907;82;20956;-82
2022/12/06 07:27:02;;;;;;;75.35;44.60;;;;;;;2.93;81.60;101184.03;1713962;82;21523;-82
2022/12/06 07:29:29;;;;;;;94.25;55.60;;;;;;;2.92;81.46;101187.02;1718732;82;21105;-82
2022/12/06 07:31:56;;;;;;;83.87;50.70;;;;;;;2.89;81.46;101185.54;1717477;83;21956;-82
2022/12/06 07:34:23;;;;;;;76.10;44.40;;;;;;;2.96;81.68;101188.52;1724267;82;21603;-83
2022/12/06 07:36:49;;;;;;;76.50;43.23;;;;;;;2.98;81.64;101177.80;1711479;82;21382;-83
2022/12/06 07:39:16;;;;;;;87.95;50.92;;;;;;;2.99;81.64;101174.01;1717101;82;21913;-80
2022/12/06 07:47:15;;;;;;;76.07;42.78;;;;;;;3.03;81.61;101173.80;1638690;86;21112;-83
2022/12/06 07:49:41;;;;;;;67.08;41.60;;;;;;;3.02;81.50;101172.91;1636091;86;21112;-80
2022/12/06 07:52:08;;;;;;;65.08;39.90;;;;;;;3.05;81.67;101173.48;1642798;86;21200;-80
2022/12/06 07:54:35;;;;;;;64.27;39.15;;;;;;;3.10;81.76;101172.97;1635837;86;21625;-80
2022/12/06 07:57:02;;;;;;;75.15;44.95;;;;;;;3.09;81.53;101167.25;1631392;86;21116;-84
2022/12/06 07:59:30;;;;;;;95.62;51.98;;;;;;;3.08;81.57;101164.17;1646157;86;21566;-83
2022/12/06 08:01:57;;;;;;;80.20;46.63;;;;;;;3.09;81.55;101158.15;1643159;86;21117;-84
2022/12/06 08:04:24;;;;;;;72.42;43.35;;;;;;;3.10;81.52;101154.76;1649950;86;21104;-83
2022/12/06 08:06:51;;;;;;;72.15;41.13;;;;;;;3.10;81.55;101148.26;1638024;86;22008;-80
2022/12/06 08:09:17;;;;;;;68.17;41.83;;;;;;;3.12;81.55;101152.27;1645094;85;21763;-80
2022/12/06 08:11:44;;;;;;;78.25;47.27;;;;;;;3.13;81.49;101164.86;1641932;86;21445;-83
2022/12/06 08:14:11;;;;;;;124.92;72.12;;;;;;;3.16;81.60;101161.16;1651548;85;20989;-80
2022/12/06 08:16:40;;;;;;;81.57;48.52;;;;;;;3.18;81.60;101163.03;1644769;86;21046;-86
2022/12/06 08:19:07;;;;;;;105.30;60.17;;;;;;;3.26;81.62;101164.80;1696573;83;21035;-80
2022/12/06 08:21:33;;;;;;;74.67;47.95;;;;;;;3.31;81.55;101161.67;1716289;83;22431;-83
2022/12/06 08:24:02;;;;;;;66.45;40.15;;;;;;;3.37;81.61;101161.55;1710345;83;21434;-83
2022/12/06 08:26:29;;;;;;;109.55;58.78;;;;;;;3.40;81.54;101161.34;1710664;83;21038;-80
2022/12/06 08:28:57;;;;;;;193.55;99.85;;;;;;;3.45;81.49;101156.39;1714920;83;21533;-80
2022/12/06 08:31:24;;;;;;;169.40;91.57;;;;;;;3.49;81.38;101164.88;1686825;83;20999;-80
2022/12/06 08:33:51;;;;;;;85.00;51.42;;;;;;;3.50;81.35;101165.39;1713868;83;21258;-83
2022/12/06 08:36:19;;;;;;;86.30;51.98;;;;;;;3.49;81.23;101169.70;1709575;83;21029;-80
2022/12/06 08:38:46;;;;;;;68.15;44.08;;;;;;;3.46;81.20;101168.20;1711076;83;21027;-83
2022/12/06 08:43:59;;;;;;;83.05;50.28;;;;;;;3.44;81.11;101169.82;1714194;83;21580;-82
2022/12/06 08:46:26;;;;;;;77.40;46.80;;;;;;;3.43;81.23;101165.41;1720639;82;22383;-79
2022/12/06 08:48:53;;;;;;;66.57;40.50;;;;;;;3.46;81.33;101166.91;1725700;82;21142;-79
2022/12/06 08:51:19;;;;;;;62.83;38.20;;;;;;;3.48;81.30;101176.11;1713578;82;21068;-83
2022/12/06 08:53:46;;;;;;;65.35;40.12;;;;;;;3.49;81.24;101176.20;1713413;83;21524;-79
2022/12/06 08:56:13;;;;;;;62.67;36.95;;;;;;;3.52;81.27;101177.20;1716367;82;21561;-82
2022/12/06 08:58:42;;;;;;;58.13;36.28;;;;;;;3.57;81.30;101175.36;1721211;82;21808;-79
2022/12/06 09:01:15;;;;;;;65.92;38.48;;;;;;;3.61;81.24;101173.44;1715702;82;21382;-79
2022/12/06 09:03:42;;;;;;;68.37;41.48;;;;;;;3.68;81.40;101168.20;1722028;82;21086;-83
2022/12/06 09:06:11;;;;;;;67.50;40.65;;;;;;;3.79;81.45;101156.72;1713354;82;21670;-79
2022/12/06 09:08:39;;;;;;;66.92;40.23;;;;;;;3.91;81.52;101153.92;1715233;82;21082;-82
2022/12/06 09:11:06;;;;;;;63.87;40.63;;;;;;;3.99;81.31;101156.55;1714007;82;21786;-79
2022/12/06 09:13:33;;;;;;;64.45;41.20;;;;;;;4.05;81.25;101157.31;1722110;82;21056;-83
2022/12/06 09:16:02;;;;;;;67.62;41.00;;;;;;;4.11;81.21;101144.66;1716592;82;21056;-80
2022/12/06 09:18:29;;;;;;;61.28;38.42;;;;;;;4.14;80.94;101147.84;1685738;83;21076;-83
2022/12/06 09:20:55;;;;;;;58.20;37.33;;;;;;;4.07;80.59;101145.27;1713740;83;21072;-80
2022/12/06 09:23:22;;;;;;;64.37;38.55;;;;;;;4.02;80.54;101147.62;1718373;82;22010;-80
2022/12/06 09:25:49;;;;;;;62.00;38.88;;;;;;;4.00;80.61;101140.55;1714435;82;21043;-79
2022/12/06 09:28:16;;;;;;;63.70;38.42;;;;;;;3.97;80.49;101141.66;1717039;82;21039;-80
2022/12/06 09:30:43;;;;;;;61.95;38.17;;;;;;;3.97;80.56;101138.64;1714558;83;21099;-80
2022/12/06 09:33:10;;;;;;;56.77;35.65;;;;;;;3.98;80.58;101138.23;1714140;83;22135;-80
2022/12/06 09:35:36;;;;;;;60.98;37.45;;;;;;;3.98;80.57;101126.51;1720032;82;21761;-83
2022/12/06 09:38:03;;;;;;;55.12;36.65;;;;;;;4.00;80.55;101128.41;1716130;82;21048;-83
2022/12/06 09:41:01;;;;;;;62.08;38.67;;;;;;;4.05;80.52;101120.84;1723519;82;21102;-83
2022/12/06 09:43:57;;;;;;;60.12;37.65;;;;;;;4.05;80.53;101123.06;1710760;82;21290;-80
2022/12/06 09:46:45;;;;;;;64.17;39.33;;;;;;;4.12;80.70;101116.48;1717978;81;21090;-79
2022/12/06 09:49:41;;;;;;;62.98;38.23;;;;;;;4.18;80.64;101110.72;1714244;82;22709;-81
2022/12/06 09:52:57;;;;;;;63.65;40.10;;;;;;;4.15;80.41;101105.33;1717713;82;21118;-81
2022/12/06 09:55:44;;;;;;;71.30;45.67;;;;;;;4.17;80.49;101102.43;1717881;82;21075;-85
2022/12/06 09:58:42;;;;;;;62.85;39.83;;;;;;;4.22;80.58;101106.17;1701662;82;21075;-81
2022/12/06 10:01:41;;;;;;;56.90;35.95;;;;;;;4.27;80.64;101103.01;1719865;82;21079;-80
2022/12/06 10:04:51;;;;;;;55.33;35.05;;;;;;;4.29;80.33;101096.17;1716237;82;21805;-80
2022/12/06 10:07:50;;;;;;;53.25;34.38;;;;;;;4.24;80.13;101098.95;1703638;83;21023;-83
2022/12/06 10:10:43;;;;;;;56.42;34.25;;;;;;;4.19;80.15;101096.90;1694950;83;21082;-84
2022/12/06 10:13:15;;;;;;;57.78;35.15;;;;;;;4.19;80.21;101083.88;1716678;82;21886;-83
2022/12/06 10:16:12;;;;;;;56.60;33.98;;;;;;;4.17;80.01;101092.89;1716912;82;21039;-84
2022/12/06 10:19:23;;;;;;;50.88;32.03;;;;;;;4.12;80.05;101088.23;1714487;82;21923;-80
2022/12/06 10:22:23;;;;;;;95.72;52.20;;;;;;;4.08;80.04;101088.05;1716633;82;21040;-80
2022/12/06 10:25:09;;;;;;;75.22;43.50;;;;;;;4.00;80.02;101089.75;1714149;82;21029;-80
2022/12/06 10:27:45;;;;;;;115.77;63.13;;;;;;;3.93;79.96;101079.38;1719502;82;20990;-80
2022/12/06 10:30:13;;;;;;;89.35;52.67;;;;;;;3.87;79.95;101073.83;1705936;82;21612;-84
2022/12/06 10:33:04;;;;;;;78.70;46.35;;;;;;;3.82;79.96;101079.17;1716016;82;21751;-84
2022/12/06 10:35:55;;;;;;;73.22;44.18;;;;;;;3.79;80.01;101077.30;1720405;82;21896;-80
2022/12/06 10:38:41;;;;;;;79.95;44.50;;;;;;;3.79;80.12;101077.30;1715019;83;21028;-80
2022/12/06 10:41:25;;;;;;;72.62;41.25;;;;;;;3.79;80.04;101073.77;1723460;82;21103;-79
2022/12/06 10:44:12;;;;;;;82.08;47.88;;;;;;;3.75;80.11;101074.41;1713783;83;21071;-82
2022/12/06 10:47:02;;;;;;;75.57;43.78;;;;;;;3.76;80.23;101064.51;1711421;82;23064;-83
2022/12/06 10:49:59;;;;;;;78.57;43.50;;;;;;;3.80;80.30;101067.77;1714019;82;21088;-79
2022/12/06 10:52:40;;;;;;;70.70;40.35;;;;;;;3.80;80.36;101063.86;1714308;82;21658;-82
2022/12/06 10:55:20;;;;;;;67.72;40.58;;;;;;;3.84;80.39;101060.20;1711869;83;21135;-79
2022/12/06 10:57:52;;;;;;;70.15;41.05;;;;;;;3.84;80.38;101049.79;1691676;83;21106;-79
2022/12/06 11:00:23;;;;;;;74.53;40.70;;;;;;;3.84;80.35;101049.79;1716322;82;21871;-83
2022/12/06 11:03:16;;;;;;;70.75;42.90;;;;;;;3.86;80.37;101053.79;1715678;83;21436;-83
2022/12/06 11:05:53;;;;;;;75.63;41.53;;;;;;;3.84;80.37;101047.19;1717529;82;21052;-83
2022/12/06 11:08:29;;;;;;;68.92;39.95;;;;;;;3.83;80.31;101049.32;1717433;82;21613;-83
2022/12/06 11:10:56;;;;;;;62.03;39.23;;;;;;;3.86;80.45;101048.58;1713500;82;21135;-83
2022/12/06 11:13:43;;;;;;;67.10;39.48;;;;;;;3.89;80.46;101039.66;1712578;82;21878;-86
2022/12/06 11:16:21;;;;;;;64.67;37.80;;;;;;;3.89;80.47;101035.75;1664362;85;21385;-79
2022/12/06 11:18:47;;;;;;;62.95;37.83;;;;;;;3.95;80.43;101029.58;1660388;85;21651;-83
2022/12/06 11:21:25;;;;;;;67.85;39.48;;;;;;;3.97;80.43;101025.34;1714483;83;21159;-83
2022/12/06 11:24:04;;;;;;;62.78;37.50;;;;;;;4.00;80.46;101022.92;1720335;82;21075;-83
2022/12/06 11:26:39;;;;;;;68.50;38.70;;;;;;;4.05;80.46;101027.98;1716137;81;21784;-80
2022/12/06 11:29:11;;;;;;;65.17;39.83;;;;;;;4.11;80.49;101028.73;1717075;82;21060;-79
2022/12/06 11:31:50;;;;;;;71.87;40.95;;;;;;;4.12;80.28;101028.32;1716829;82;21003;-79
2022/12/06 11:34:52;;;;;;;67.32;38.50;;;;;;;4.09;80.29;101031.25;1715479;82;21016;-79
2022/12/06 11:37:22;;;;;;;75.65;41.05;;;;;;;4.08;80.32;101033.34;1727050;82;20974;-79
2022/12/06 11:39:55;;;;;;;71.00;39.78;;;;;;;4.06;80.31;101032.38;1691571;82;21957;-79
2022/12/06 11:42:25;;;;;;;72.55;40.03;;;;;;;4.01;80.20;101032.51;1715283;82;21053;-81
2022/12/06 11:45:01;;;;;;;71.47;39.18;;;;;;;3.95;80.12;101024.36;1717964;82;20972;-82
2022/12/06 11:47:28;;;;;;;69.30;38.38;;;;;;;3.87;80.06;101023.94;1714991;81;21038;-83
2022/12/06 11:49:55;;;;;;;67.25;39.10;;;;;;;3.81;80.13;101024.91;1702115;82;21020;-79
2022/12/06 11:52:41;;;;;;;70.78;40.23;;;;;;;3.78;80.16;101027.32;1729409;82;21873;-79
2022/12/06 11:55:20;;;;;;;68.80;41.40;;;;;;;3.75;80.23;101025.83;1683119;82;21512;-79
2022/12/06 11:58:12;;;;;;;72.65;40.52;;;;;;;3.77;80.34;101013.80;1691401;82;21035;-80
2022/12/06 12:01:00;;;;;;;73.65;41.20;;;;;;;3.80;80.49;101011.79;1708055;82;21291;-81
2022/12/06 12:03:33;;;;;;;74.58;44.27;;;;;;;3.83;80.37;101011.56;1725041;82;21421;-79
2022/12/06 12:06:23;;;;;;;72.03;43.53;;;;;;;3.76;80.19;101000.72;1726897;82;21768;-80
2022/12/06 12:08:59;;;;;;;79.70;51.50;;;;;;;3.74;80.31;101004.53;1714004;82;21302;-84